sensor_id;sensor_type;location;lat;lon;timestamp;temperature;humidity
820;DHT22;392;48.838;2.322;2023-12-20T00:00:35;10.80;80.30
820;DHT22;392;48.838;2.322;2023-12-20T00:03:03;10.70;80.10
820;DHT22;392;48.838;2.322;2023-12-20T00:05:31;10.70;80.00
820;DHT22;392;48.838;2.322;2023-12-20T00:07:59;10.70;80.00
820;DHT22;392;48.838;2.322;2023-12-20T00:10:26;10.60;80.50
820;DHT22;392;48.838;2.322;2023-12-20T00:12:53;10.60;80.80
820;DHT22;392;48.838;2.322;2023-12-20T00:15:22;10.60;81.10
820;DHT22;392;48.838;2.322;2023-12-20T00:17:49;10.60;80.30
820;DHT22;392;48.838;2.322;2023-12-20T00:20:16;10.50;80.70
820;DHT22;392;48.838;2.322;2023-12-20T00:22:43;10.60;79.90
820;DHT22;392;48.838;2.322;2023-12-20T00:25:11;10.50;78.40
820;DHT22;392;48.838;2.322;2023-12-20T00:27:39;10.50;76.90
820;DHT22;392;48.838;2.322;2023-12-20T00:30:07;10.50;75.60
820;DHT22;392;48.838;2.322;2023-12-20T00:32:36;10.50;74.40
820;DHT22;392;48.838;2.322;2023-12-20T00:35:04;10.50;72.50
820;DHT22;392;48.838;2.322;2023-12-20T00:37:31;10.40;69.60
820;DHT22;392;48.838;2.322;2023-12-20T00:39:59;10.40;67.90
820;DHT22;392;48.838;2.322;2023-12-20T00:42:26;10.40;66.20
820;DHT22;392;48.838;2.322;2023-12-20T00:44:53;10.30;62.50
820;DHT22;392;48.838;2.322;2023-12-20T00:47:20;10.30;60.70
820;DHT22;392;48.838;2.322;2023-12-20T00:49:49;10.20;59.20
820;DHT22;392;48.838;2.322;2023-12-20T00:52:16;10.20;58.50
820;DHT22;392;48.838;2.322;2023-12-20T00:54:44;10.20;57.90
820;DHT22;392;48.838;2.322;2023-12-20T00:57:11;10.20;56.90
820;DHT22;392;48.838;2.322;2023-12-20T00:59:38;10.20;56.80
820;DHT22;392;48.838;2.322;2023-12-20T01:02:05;10.20;56.10
820;DHT22;392;48.838;2.322;2023-12-20T01:04:33;10.20;54.20
820;DHT22;392;48.838;2.322;2023-12-20T01:07:01;10.10;52.60
820;DHT22;392;48.838;2.322;2023-12-20T01:09:28;10.00;51.30
820;DHT22;392;48.838;2.322;2023-12-20T01:11:56;10.00;50.90
820;DHT22;392;48.838;2.322;2023-12-20T01:14:23;9.90;52.00
820;DHT22;392;48.838;2.322;2023-12-20T01:16:50;9.90;52.50
820;DHT22;392;48.838;2.322;2023-12-20T01:19:17;9.90;52.60
820;DHT22;392;48.838;2.322;2023-12-20T01:21:45;9.80;52.90
820;DHT22;392;48.838;2.322;2023-12-20T01:24:14;9.80;52.90
820;DHT22;392;48.838;2.322;2023-12-20T01:26:41;9.80;53.20
820;DHT22;392;48.838;2.322;2023-12-20T01:29:08;9.70;53.30
820;DHT22;392;48.838;2.322;2023-12-20T01:31:35;9.60;53.50
820;DHT22;392;48.838;2.322;2023-12-20T01:34:03;9.60;53.80
820;DHT22;392;48.838;2.322;2023-12-20T01:36:30;9.60;54.10
820;DHT22;392;48.838;2.322;2023-12-20T01:38:57;9.60;54.30
820;DHT22;392;48.838;2.322;2023-12-20T01:41:26;9.60;54.80
820;DHT22;392;48.838;2.322;2023-12-20T01:43:53;9.50;54.80
820;DHT22;392;48.838;2.322;2023-12-20T01:46:21;9.50;55.20
820;DHT22;392;48.838;2.322;2023-12-20T01:48:48;9.50;55.00
820;DHT22;392;48.838;2.322;2023-12-20T01:51:16;9.50;55.00
820;DHT22;392;48.838;2.322;2023-12-20T01:53:43;9.50;55.20
820;DHT22;392;48.838;2.322;2023-12-20T01:56:11;9.40;55.00
820;DHT22;392;48.838;2.322;2023-12-20T01:58:43;9.40;55.20
820;DHT22;392;48.838;2.322;2023-12-20T02:01:12;9.40;55.40
820;DHT22;392;48.838;2.322;2023-12-20T02:03:39;9.30;55.40
820;DHT22;392;48.838;2.322;2023-12-20T02:06:07;9.30;55.90
820;DHT22;392;48.838;2.322;2023-12-20T02:08:35;9.20;56.20
820;DHT22;392;48.838;2.322;2023-12-20T02:11:03;9.20;56.80
820;DHT22;392;48.838;2.322;2023-12-20T02:13:30;9.20;57.20
820;DHT22;392;48.838;2.322;2023-12-20T02:15:59;9.20;57.40
820;DHT22;392;48.838;2.322;2023-12-20T02:18:26;9.30;57.70
820;DHT22;392;48.838;2.322;2023-12-20T02:20:53;9.30;57.80
820;DHT22;392;48.838;2.322;2023-12-20T02:23:22;9.30;57.50
820;DHT22;392;48.838;2.322;2023-12-20T02:25:50;9.30;57.40
820;DHT22;392;48.838;2.322;2023-12-20T02:28:17;9.30;57.10
820;DHT22;392;48.838;2.322;2023-12-20T02:30:44;9.40;56.90
820;DHT22;392;48.838;2.322;2023-12-20T02:33:12;9.40;56.60
820;DHT22;392;48.838;2.322;2023-12-20T02:35:41;9.40;56.50
820;DHT22;392;48.838;2.322;2023-12-20T02:38:08;9.40;56.20
820;DHT22;392;48.838;2.322;2023-12-20T02:40:37;9.40;55.70
820;DHT22;392;48.838;2.322;2023-12-20T02:43:04;9.40;55.40
820;DHT22;392;48.838;2.322;2023-12-20T02:45:31;9.40;55.30
820;DHT22;392;48.838;2.322;2023-12-20T02:47:58;9.40;55.50
820;DHT22;392;48.838;2.322;2023-12-20T02:50:25;9.40;55.30
820;DHT22;392;48.838;2.322;2023-12-20T02:52:52;9.30;55.10
820;DHT22;392;48.838;2.322;2023-12-20T02:55:19;9.30;55.20
820;DHT22;392;48.838;2.322;2023-12-20T02:57:48;9.30;55.10
820;DHT22;392;48.838;2.322;2023-12-20T03:00:15;9.30;55.00
820;DHT22;392;48.838;2.322;2023-12-20T03:02:43;9.30;55.10
820;DHT22;392;48.838;2.322;2023-12-20T03:05:10;9.30;55.90
820;DHT22;392;48.838;2.322;2023-12-20T03:07:37;9.20;55.10
820;DHT22;392;48.838;2.322;2023-12-20T03:10:06;9.20;55.10
820;DHT22;392;48.838;2.322;2023-12-20T03:12:35;9.20;55.20
820;DHT22;392;48.838;2.322;2023-12-20T03:15:04;9.20;55.40
820;DHT22;392;48.838;2.322;2023-12-20T03:17:31;9.10;55.60
820;DHT22;392;48.838;2.322;2023-12-20T03:19:58;9.10;56.00
820;DHT22;392;48.838;2.322;2023-12-20T03:22:25;9.00;56.10
820;DHT22;392;48.838;2.322;2023-12-20T03:24:53;9.00;56.30
820;DHT22;392;48.838;2.322;2023-12-20T03:27:20;9.00;56.60
820;DHT22;392;48.838;2.322;2023-12-20T03:29:47;9.00;56.80
820;DHT22;392;48.838;2.322;2023-12-20T03:32:16;8.90;57.00
820;DHT22;392;48.838;2.322;2023-12-20T03:34:43;8.90;57.40
820;DHT22;392;48.838;2.322;2023-12-20T03:37:10;8.90;57.80
820;DHT22;392;48.838;2.322;2023-12-20T03:39:37;8.80;57.80
820;DHT22;392;48.838;2.322;2023-12-20T03:42:04;8.80;58.00
820;DHT22;392;48.838;2.322;2023-12-20T03:44:32;8.90;58.30
820;DHT22;392;48.838;2.322;2023-12-20T03:46:59;8.80;58.30
820;DHT22;392;48.838;2.322;2023-12-20T03:49:27;8.80;58.30
820;DHT22;392;48.838;2.322;2023-12-20T03:51:55;8.80;58.30
820;DHT22;392;48.838;2.322;2023-12-20T03:54:22;8.80;58.30
820;DHT22;392;48.838;2.322;2023-12-20T03:56:49;8.80;58.30
820;DHT22;392;48.838;2.322;2023-12-20T03:59:17;8.80;58.30
820;DHT22;392;48.838;2.322;2023-12-20T04:01:44;8.80;58.90
820;DHT22;392;48.838;2.322;2023-12-20T04:04:13;8.80;59.10
820;DHT22;392;48.838;2.322;2023-12-20T04:06:42;8.80;59.10
820;DHT22;392;48.838;2.322;2023-12-20T04:09:09;8.80;58.80
820;DHT22;392;48.838;2.322;2023-12-20T04:11:36;8.80;58.70
820;DHT22;392;48.838;2.322;2023-12-20T04:14:04;8.80;58.60
820;DHT22;392;48.838;2.322;2023-12-20T04:16:31;8.90;58.40
820;DHT22;392;48.838;2.322;2023-12-20T04:18:58;8.90;58.40
820;DHT22;392;48.838;2.322;2023-12-20T04:21:25;8.90;58.40
820;DHT22;392;48.838;2.322;2023-12-20T04:23:54;8.90;58.40
820;DHT22;392;48.838;2.322;2023-12-20T04:26:21;8.90;58.40
820;DHT22;392;48.838;2.322;2023-12-20T04:28:48;8.80;58.20
820;DHT22;392;48.838;2.322;2023-12-20T04:31:15;8.80;58.30
820;DHT22;392;48.838;2.322;2023-12-20T04:33:43;8.70;58.20
820;DHT22;392;48.838;2.322;2023-12-20T04:36:10;8.70;58.50
820;DHT22;392;48.838;2.322;2023-12-20T04:38:37;8.70;58.80
820;DHT22;392;48.838;2.322;2023-12-20T04:41:06;8.70;59.10
820;DHT22;392;48.838;2.322;2023-12-20T04:43:33;8.60;59.30
820;DHT22;392;48.838;2.322;2023-12-20T04:46:00;8.60;59.40
820;DHT22;392;48.838;2.322;2023-12-20T04:48:27;8.60;59.40
820;DHT22;392;48.838;2.322;2023-12-20T04:50:55;8.60;59.70
820;DHT22;392;48.838;2.322;2023-12-20T04:53:22;8.50;59.80
820;DHT22;392;48.838;2.322;2023-12-20T04:55:49;8.40;60.20
820;DHT22;392;48.838;2.322;2023-12-20T04:58:18;8.40;60.50
820;DHT22;392;48.838;2.322;2023-12-20T05:00:45;8.40;60.90
820;DHT22;392;48.838;2.322;2023-12-20T05:03:12;8.30;61.10
820;DHT22;392;48.838;2.322;2023-12-20T05:05:40;8.30;61.50
820;DHT22;392;48.838;2.322;2023-12-20T05:08:07;8.20;61.90
820;DHT22;392;48.838;2.322;2023-12-20T05:10:34;8.20;62.10
820;DHT22;392;48.838;2.322;2023-12-20T05:13:02;8.20;62.40
820;DHT22;392;48.838;2.322;2023-12-20T05:15:31;8.20;62.40
820;DHT22;392;48.838;2.322;2023-12-20T05:17:58;8.20;62.60
820;DHT22;392;48.838;2.322;2023-12-20T05:20:25;8.10;62.70
820;DHT22;392;48.838;2.322;2023-12-20T05:22:52;8.20;63.00
820;DHT22;392;48.838;2.322;2023-12-20T05:25:19;8.20;63.10
820;DHT22;392;48.838;2.322;2023-12-20T05:27:47;8.20;63.00
820;DHT22;392;48.838;2.322;2023-12-20T05:30:15;8.20;62.70
820;DHT22;392;48.838;2.322;2023-12-20T05:32:43;8.20;62.60
820;DHT22;392;48.838;2.322;2023-12-20T05:35:10;8.20;62.80
820;DHT22;392;48.838;2.322;2023-12-20T05:37:38;8.20;62.80
820;DHT22;392;48.838;2.322;2023-12-20T05:40:06;8.20;62.70
820;DHT22;392;48.838;2.322;2023-12-20T05:42:36;8.10;62.90
820;DHT22;392;48.838;2.322;2023-12-20T05:45:04;8.10;63.20
820;DHT22;392;48.838;2.322;2023-12-20T05:47:31;8.10;63.20
820;DHT22;392;48.838;2.322;2023-12-20T05:50:00;8.10;63.00
820;DHT22;392;48.838;2.322;2023-12-20T05:52:27;8.10;63.30
820;DHT22;392;48.838;2.322;2023-12-20T05:54:54;8.10;63.40
820;DHT22;392;48.838;2.322;2023-12-20T05:57:23;8.10;63.50
820;DHT22;392;48.838;2.322;2023-12-20T05:59:50;8.10;63.40
820;DHT22;392;48.838;2.322;2023-12-20T06:02:17;8.00;63.10
820;DHT22;392;48.838;2.322;2023-12-20T06:04:45;8.00;63.40
820;DHT22;392;48.838;2.322;2023-12-20T06:07:14;8.00;63.50
820;DHT22;392;48.838;2.322;2023-12-20T06:09:42;8.00;63.70
820;DHT22;392;48.838;2.322;2023-12-20T06:12:09;8.00;63.90
820;DHT22;392;48.838;2.322;2023-12-20T06:14:36;8.00;63.80
820;DHT22;392;48.838;2.322;2023-12-20T06:17:03;8.00;63.70
820;DHT22;392;48.838;2.322;2023-12-20T06:19:31;8.00;63.80
820;DHT22;392;48.838;2.322;2023-12-20T06:21:58;8.00;63.80
820;DHT22;392;48.838;2.322;2023-12-20T06:24:27;8.10;63.70
820;DHT22;392;48.838;2.322;2023-12-20T06:26:54;8.10;63.70
820;DHT22;392;48.838;2.322;2023-12-20T06:29:21;8.10;63.70
820;DHT22;392;48.838;2.322;2023-12-20T06:31:48;8.00;63.50
820;DHT22;392;48.838;2.322;2023-12-20T06:34:16;8.00;63.80
820;DHT22;392;48.838;2.322;2023-12-20T06:36:43;8.00;63.90
820;DHT22;392;48.838;2.322;2023-12-20T06:39:10;8.00;64.20
820;DHT22;392;48.838;2.322;2023-12-20T06:41:41;8.00;64.20
820;DHT22;392;48.838;2.322;2023-12-20T06:44:08;8.00;64.20
820;DHT22;392;48.838;2.322;2023-12-20T06:46:36;8.00;64.30
820;DHT22;392;48.838;2.322;2023-12-20T06:49:03;8.00;64.50
820;DHT22;392;48.838;2.322;2023-12-20T06:51:30;8.00;64.60
820;DHT22;392;48.838;2.322;2023-12-20T06:53:57;8.00;64.70
820;DHT22;392;48.838;2.322;2023-12-20T06:56:25;8.00;64.70
820;DHT22;392;48.838;2.322;2023-12-20T06:58:54;8.00;64.80
820;DHT22;392;48.838;2.322;2023-12-20T07:01:21;8.00;64.70
820;DHT22;392;48.838;2.322;2023-12-20T07:03:48;8.00;64.90
820;DHT22;392;48.838;2.322;2023-12-20T07:06:15;7.90;65.00
820;DHT22;392;48.838;2.322;2023-12-20T07:08:43;7.90;65.40
820;DHT22;392;48.838;2.322;2023-12-20T07:11:10;7.90;65.60
820;DHT22;392;48.838;2.322;2023-12-20T07:13:37;7.90;65.90
820;DHT22;392;48.838;2.322;2023-12-20T07:16:06;7.90;66.60
820;DHT22;392;48.838;2.322;2023-12-20T07:18:33;7.90;66.70
820;DHT22;392;48.838;2.322;2023-12-20T07:21:00;8.00;66.80
820;DHT22;392;48.838;2.322;2023-12-20T07:23:28;7.90;66.70
820;DHT22;392;48.838;2.322;2023-12-20T07:25:55;8.00;66.80
820;DHT22;392;48.838;2.322;2023-12-20T07:28:22;8.00;66.80
820;DHT22;392;48.838;2.322;2023-12-20T07:30:50;8.00;66.80
820;DHT22;392;48.838;2.322;2023-12-20T07:33:19;8.10;66.90
820;DHT22;392;48.838;2.322;2023-12-20T07:35:46;8.10;66.90
820;DHT22;392;48.838;2.322;2023-12-20T07:38:13;8.10;66.60
820;DHT22;392;48.838;2.322;2023-12-20T07:40:40;8.10;66.70
820;DHT22;392;48.838;2.322;2023-12-20T07:43:08;8.10;66.50
820;DHT22;392;48.838;2.322;2023-12-20T07:45:35;8.10;66.90
820;DHT22;392;48.838;2.322;2023-12-20T07:48:04;8.10;66.90
820;DHT22;392;48.838;2.322;2023-12-20T07:50:34;8.10;67.20
820;DHT22;392;48.838;2.322;2023-12-20T07:53:02;8.10;67.80
820;DHT22;392;48.838;2.322;2023-12-20T07:55:29;8.10;67.90
820;DHT22;392;48.838;2.322;2023-12-20T07:57:57;8.10;68.00
820;DHT22;392;48.838;2.322;2023-12-20T08:00:25;8.10;67.90
820;DHT22;392;48.838;2.322;2023-12-20T08:02:52;8.10;68.10
820;DHT22;392;48.838;2.322;2023-12-20T08:05:19;8.10;67.20
820;DHT22;392;48.838;2.322;2023-12-20T08:07:48;8.10;67.10
820;DHT22;392;48.838;2.322;2023-12-20T08:10:15;8.10;66.90
820;DHT22;392;48.838;2.322;2023-12-20T08:12:43;8.20;67.00
820;DHT22;392;48.838;2.322;2023-12-20T08:15:11;8.20;67.00
820;DHT22;392;48.838;2.322;2023-12-20T08:17:38;8.20;67.00
820;DHT22;392;48.838;2.322;2023-12-20T08:20:06;8.20;67.00
820;DHT22;392;48.838;2.322;2023-12-20T08:22:34;8.20;66.70
820;DHT22;392;48.838;2.322;2023-12-20T08:25:03;8.20;66.50
820;DHT22;392;48.838;2.322;2023-12-20T08:27:31;8.20;66.30
820;DHT22;392;48.838;2.322;2023-12-20T08:29:59;8.30;66.10
820;DHT22;392;48.838;2.322;2023-12-20T08:32:26;8.30;66.00
820;DHT22;392;48.838;2.322;2023-12-20T08:34:53;8.30;65.80
820;DHT22;392;48.838;2.322;2023-12-20T08:37:20;8.30;65.50
820;DHT22;392;48.838;2.322;2023-12-20T08:39:47;8.30;65.40
820;DHT22;392;48.838;2.322;2023-12-20T08:42:16;8.30;65.10
820;DHT22;392;48.838;2.322;2023-12-20T08:44:43;8.30;65.00
820;DHT22;392;48.838;2.322;2023-12-20T08:47:11;8.30;64.90
820;DHT22;392;48.838;2.322;2023-12-20T08:49:41;8.30;64.80
820;DHT22;392;48.838;2.322;2023-12-20T08:52:09;8.30;64.80
820;DHT22;392;48.838;2.322;2023-12-20T08:54:36;8.30;65.10
820;DHT22;392;48.838;2.322;2023-12-20T08:57:04;8.30;65.10
820;DHT22;392;48.838;2.322;2023-12-20T08:59:33;8.30;65.20
820;DHT22;392;48.838;2.322;2023-12-20T09:02:01;8.30;66.10
820;DHT22;392;48.838;2.322;2023-12-20T09:04:28;8.30;65.20
820;DHT22;392;48.838;2.322;2023-12-20T09:06:55;8.30;64.90
820;DHT22;392;48.838;2.322;2023-12-20T09:09:22;8.30;64.60
820;DHT22;392;48.838;2.322;2023-12-20T09:11:49;8.30;64.80
820;DHT22;392;48.838;2.322;2023-12-20T09:14:17;8.30;64.80
820;DHT22;392;48.838;2.322;2023-12-20T09:16:46;8.40;65.10
820;DHT22;392;48.838;2.322;2023-12-20T09:19:13;8.40;65.80
820;DHT22;392;48.838;2.322;2023-12-20T09:21:40;8.40;66.30
820;DHT22;392;48.838;2.322;2023-12-20T09:24:08;8.60;66.50
820;DHT22;392;48.838;2.322;2023-12-20T09:26:35;8.70;66.30
820;DHT22;392;48.838;2.322;2023-12-20T09:29:02;8.80;65.60
820;DHT22;392;48.838;2.322;2023-12-20T09:31:29;8.90;64.60
820;DHT22;392;48.838;2.322;2023-12-20T09:33:58;9.00;63.70
820;DHT22;392;48.838;2.322;2023-12-20T09:36:25;9.00;62.60
820;DHT22;392;48.838;2.322;2023-12-20T09:38:52;9.00;62.10
820;DHT22;392;48.838;2.322;2023-12-20T09:41:20;9.10;61.90
820;DHT22;392;48.838;2.322;2023-12-20T09:43:48;9.20;61.70
820;DHT22;392;48.838;2.322;2023-12-20T09:46:20;9.30;61.70
820;DHT22;392;48.838;2.322;2023-12-20T09:48:49;9.30;61.00
820;DHT22;392;48.838;2.322;2023-12-20T09:51:18;9.40;60.40
820;DHT22;392;48.838;2.322;2023-12-20T09:53:46;9.50;59.30
820;DHT22;392;48.838;2.322;2023-12-20T09:56:14;9.60;59.00
820;DHT22;392;48.838;2.322;2023-12-20T09:58:41;9.70;59.10
820;DHT22;392;48.838;2.322;2023-12-20T10:01:09;9.70;58.00
820;DHT22;392;48.838;2.322;2023-12-20T10:03:39;9.70;56.50
820;DHT22;392;48.838;2.322;2023-12-20T10:06:08;9.70;56.90
820;DHT22;392;48.838;2.322;2023-12-20T10:08:38;9.80;56.80
820;DHT22;392;48.838;2.322;2023-12-20T10:11:05;9.80;56.10
820;DHT22;392;48.838;2.322;2023-12-20T10:13:33;9.80;55.90
820;DHT22;392;48.838;2.322;2023-12-20T10:16:00;9.90;55.70
820;DHT22;392;48.838;2.322;2023-12-20T10:18:29;9.90;55.40
820;DHT22;392;48.838;2.322;2023-12-20T10:20:56;10.00;54.10
820;DHT22;392;48.838;2.322;2023-12-20T10:23:24;10.00;54.00
820;DHT22;392;48.838;2.322;2023-12-20T10:26:00;10.10;53.70
820;DHT22;392;48.838;2.322;2023-12-20T10:28:33;10.10;54.80
820;DHT22;392;48.838;2.322;2023-12-20T10:31:01;10.10;51.30
820;DHT22;392;48.838;2.322;2023-12-20T10:33:30;10.10;51.50
820;DHT22;392;48.838;2.322;2023-12-20T10:35:58;10.10;52.00
820;DHT22;392;48.838;2.322;2023-12-20T10:38:25;10.10;52.20
820;DHT22;392;48.838;2.322;2023-12-20T10:40:57;10.10;53.20
820;DHT22;392;48.838;2.322;2023-12-20T10:43:26;10.10;53.20
820;DHT22;392;48.838;2.322;2023-12-20T10:45:54;10.10;52.70
820;DHT22;392;48.838;2.322;2023-12-20T10:48:22;10.10;52.60
820;DHT22;392;48.838;2.322;2023-12-20T10:50:58;10.10;52.50
820;DHT22;392;48.838;2.322;2023-12-20T10:53:25;10.10;52.60
820;DHT22;392;48.838;2.322;2023-12-20T10:55:54;10.10;53.00
820;DHT22;392;48.838;2.322;2023-12-20T10:58:26;10.20;53.70
820;DHT22;392;48.838;2.322;2023-12-20T11:00:59;10.30;53.30
820;DHT22;392;48.838;2.322;2023-12-20T11:03:28;10.40;52.10
820;DHT22;392;48.838;2.322;2023-12-20T11:06:03;10.40;51.60
820;DHT22;392;48.838;2.322;2023-12-20T11:08:36;10.40;51.50
820;DHT22;392;48.838;2.322;2023-12-20T11:11:10;10.50;51.40
820;DHT22;392;48.838;2.322;2023-12-20T11:13:53;10.60;51.70
820;DHT22;392;48.838;2.322;2023-12-20T11:16:22;10.80;50.90
820;DHT22;392;48.838;2.322;2023-12-20T11:18:51;10.80;48.40
820;DHT22;392;48.838;2.322;2023-12-20T11:21:19;10.80;47.60
820;DHT22;392;48.838;2.322;2023-12-20T11:23:47;10.70;47.60
820;DHT22;392;48.838;2.322;2023-12-20T11:26:15;10.60;48.20
820;DHT22;392;48.838;2.322;2023-12-20T11:28:44;10.60;48.60
820;DHT22;392;48.838;2.322;2023-12-20T11:31:14;10.50;49.20
820;DHT22;392;48.838;2.322;2023-12-20T11:33:43;10.50;49.30
820;DHT22;392;48.838;2.322;2023-12-20T11:36:14;10.50;49.90
820;DHT22;392;48.838;2.322;2023-12-20T11:38:54;10.60;50.40
820;DHT22;392;48.838;2.322;2023-12-20T11:41:23;10.60;50.40
820;DHT22;392;48.838;2.322;2023-12-20T11:43:53;10.60;50.60
820;DHT22;392;48.838;2.322;2023-12-20T11:46:21;10.70;51.30
820;DHT22;392;48.838;2.322;2023-12-20T11:48:48;10.80;50.80
820;DHT22;392;48.838;2.322;2023-12-20T11:51:15;11.00;49.70
820;DHT22;392;48.838;2.322;2023-12-20T11:53:43;11.10;47.50
820;DHT22;392;48.838;2.322;2023-12-20T11:56:10;11.20;46.30
820;DHT22;392;48.838;2.322;2023-12-20T11:58:38;11.20;45.00
820;DHT22;392;48.838;2.322;2023-12-20T12:01:06;11.20;44.60
820;DHT22;392;48.838;2.322;2023-12-20T12:03:34;11.30;45.10
820;DHT22;392;48.838;2.322;2023-12-20T12:06:02;11.40;45.30
820;DHT22;392;48.838;2.322;2023-12-20T12:08:30;11.50;45.20
820;DHT22;392;48.838;2.322;2023-12-20T12:10:57;11.50;43.60
820;DHT22;392;48.838;2.322;2023-12-20T12:13:24;11.50;43.60
820;DHT22;392;48.838;2.322;2023-12-20T12:15:53;11.50;42.70
820;DHT22;392;48.838;2.322;2023-12-20T12:18:21;11.40;42.80
820;DHT22;392;48.838;2.322;2023-12-20T12:20:49;11.20;43.80
820;DHT22;392;48.838;2.322;2023-12-20T12:23:23;11.20;44.70
820;DHT22;392;48.838;2.322;2023-12-20T12:25:50;11.10;45.40
820;DHT22;392;48.838;2.322;2023-12-20T12:28:17;11.00;46.40
820;DHT22;392;48.838;2.322;2023-12-20T12:30:56;11.00;46.80
820;DHT22;392;48.838;2.322;2023-12-20T12:33:26;11.00;47.40
820;DHT22;392;48.838;2.322;2023-12-20T12:35:54;10.90;49.10
820;DHT22;392;48.838;2.322;2023-12-20T12:38:22;10.90;51.20
820;DHT22;392;48.838;2.322;2023-12-20T12:40:50;10.90;52.10
820;DHT22;392;48.838;2.322;2023-12-20T12:43:19;10.80;52.50
820;DHT22;392;48.838;2.322;2023-12-20T12:45:46;10.70;53.60
820;DHT22;392;48.838;2.322;2023-12-20T12:48:13;10.70;54.30
820;DHT22;392;48.838;2.322;2023-12-20T12:50:42;10.70;55.20
820;DHT22;392;48.838;2.322;2023-12-20T12:53:10;10.60;55.80
820;DHT22;392;48.838;2.322;2023-12-20T12:55:36;10.60;56.50
820;DHT22;392;48.838;2.322;2023-12-20T12:58:03;10.60;57.30
820;DHT22;392;48.838;2.322;2023-12-20T13:00:31;10.60;58.10
820;DHT22;392;48.838;2.322;2023-12-20T13:02:58;10.70;58.00
820;DHT22;392;48.838;2.322;2023-12-20T13:05:27;10.70;58.10
820;DHT22;392;48.838;2.322;2023-12-20T13:07:56;10.80;58.20
820;DHT22;392;48.838;2.322;2023-12-20T13:10:24;11.00;58.00
820;DHT22;392;48.838;2.322;2023-12-20T13:12:51;11.10;56.30
820;DHT22;392;48.838;2.322;2023-12-20T13:15:18;11.00;55.30
820;DHT22;392;48.838;2.322;2023-12-20T13:17:45;11.10;55.80
820;DHT22;392;48.838;2.322;2023-12-20T13:20:13;11.10;55.80
820;DHT22;392;48.838;2.322;2023-12-20T13:22:40;11.10;56.40
820;DHT22;392;48.838;2.322;2023-12-20T13:25:08;11.20;57.10
820;DHT22;392;48.838;2.322;2023-12-20T13:27:36;11.30;58.00
820;DHT22;392;48.838;2.322;2023-12-20T13:30:04;11.50;55.80
820;DHT22;392;48.838;2.322;2023-12-20T13:32:32;11.50;53.50
820;DHT22;392;48.838;2.322;2023-12-20T13:34:59;11.50;53.40
820;DHT22;392;48.838;2.322;2023-12-20T13:37:26;11.50;52.30
820;DHT22;392;48.838;2.322;2023-12-20T13:39:53;11.60;51.90
820;DHT22;392;48.838;2.322;2023-12-20T13:42:22;11.60;52.40
820;DHT22;392;48.838;2.322;2023-12-20T13:44:49;11.60;51.80
820;DHT22;392;48.838;2.322;2023-12-20T13:47:16;11.60;51.40
820;DHT22;392;48.838;2.322;2023-12-20T13:49:45;11.50;51.20
820;DHT22;392;48.838;2.322;2023-12-20T13:52:12;11.50;51.10
820;DHT22;392;48.838;2.322;2023-12-20T13:54:39;11.40;51.10
820;DHT22;392;48.838;2.322;2023-12-20T13:57:06;11.40;51.50
820;DHT22;392;48.838;2.322;2023-12-20T13:59:35;11.30;51.80
820;DHT22;392;48.838;2.322;2023-12-20T14:02:03;11.30;52.00
820;DHT22;392;48.838;2.322;2023-12-20T14:04:30;11.30;52.00
820;DHT22;392;48.838;2.322;2023-12-20T14:06:57;11.30;51.30
820;DHT22;392;48.838;2.322;2023-12-20T14:09:25;11.20;51.40
820;DHT22;392;48.838;2.322;2023-12-20T14:11:52;11.20;51.50
820;DHT22;392;48.838;2.322;2023-12-20T14:14:20;11.20;51.30
820;DHT22;392;48.838;2.322;2023-12-20T14:16:49;11.20;51.10
820;DHT22;392;48.838;2.322;2023-12-20T14:19:16;11.10;50.70
820;DHT22;392;48.838;2.322;2023-12-20T14:21:44;11.10;51.50
820;DHT22;392;48.838;2.322;2023-12-20T14:24:12;11.10;52.30
820;DHT22;392;48.838;2.322;2023-12-20T14:26:40;11.00;53.60
820;DHT22;392;48.838;2.322;2023-12-20T14:29:07;10.90;54.50
820;DHT22;392;48.838;2.322;2023-12-20T14:31:35;10.90;55.60
820;DHT22;392;48.838;2.322;2023-12-20T14:34:04;10.80;56.70
820;DHT22;392;48.838;2.322;2023-12-20T14:36:32;10.80;57.50
820;DHT22;392;48.838;2.322;2023-12-20T14:38:59;10.80;58.10
820;DHT22;392;48.838;2.322;2023-12-20T14:41:27;10.80;58.40
820;DHT22;392;48.838;2.322;2023-12-20T14:43:54;10.80;58.40
820;DHT22;392;48.838;2.322;2023-12-20T14:46:21;10.90;58.80
820;DHT22;392;48.838;2.322;2023-12-20T14:48:49;10.90;58.70
820;DHT22;392;48.838;2.322;2023-12-20T14:51:17;10.90;58.40
820;DHT22;392;48.838;2.322;2023-12-20T14:53:44;11.00;58.30
820;DHT22;392;48.838;2.322;2023-12-20T14:56:12;11.00;58.30
820;DHT22;392;48.838;2.322;2023-12-20T14:58:40;11.10;57.70
820;DHT22;392;48.838;2.322;2023-12-20T15:01:08;11.10;56.80
820;DHT22;392;48.838;2.322;2023-12-20T15:03:35;11.20;56.10
820;DHT22;392;48.838;2.322;2023-12-20T15:06:02;11.20;55.30
820;DHT22;392;48.838;2.322;2023-12-20T15:08:32;11.20;54.70
820;DHT22;392;48.838;2.322;2023-12-20T15:11:01;11.20;54.70
820;DHT22;392;48.838;2.322;2023-12-20T15:13:29;11.20;54.60
820;DHT22;392;48.838;2.322;2023-12-20T15:15:58;11.20;54.20
820;DHT22;392;48.838;2.322;2023-12-20T15:18:25;11.20;54.00
820;DHT22;392;48.838;2.322;2023-12-20T15:20:53;11.20;53.50
820;DHT22;392;48.838;2.322;2023-12-20T15:23:20;11.10;53.40
820;DHT22;392;48.838;2.322;2023-12-20T15:25:52;11.10;53.50
820;DHT22;392;48.838;2.322;2023-12-20T15:28:20;11.10;53.40
820;DHT22;392;48.838;2.322;2023-12-20T15:30:47;11.10;53.60
820;DHT22;392;48.838;2.322;2023-12-20T15:33:14;11.10;53.60
820;DHT22;392;48.838;2.322;2023-12-20T15:35:41;11.10;53.70
820;DHT22;392;48.838;2.322;2023-12-20T15:38:08;11.10;53.70
820;DHT22;392;48.838;2.322;2023-12-20T15:40:36;11.10;53.70
820;DHT22;392;48.838;2.322;2023-12-20T15:43:04;11.10;53.80
820;DHT22;392;48.838;2.322;2023-12-20T15:45:32;11.10;54.10
820;DHT22;392;48.838;2.322;2023-12-20T15:47:59;11.20;54.30
820;DHT22;392;48.838;2.322;2023-12-20T15:50:26;11.10;54.60
820;DHT22;392;48.838;2.322;2023-12-20T15:52:52;11.10;54.70
820;DHT22;392;48.838;2.322;2023-12-20T15:55:20;11.10;55.20
820;DHT22;392;48.838;2.322;2023-12-20T15:57:47;11.10;55.50
820;DHT22;392;48.838;2.322;2023-12-20T16:00:16;11.10;55.60
820;DHT22;392;48.838;2.322;2023-12-20T16:02:44;11.10;55.70
820;DHT22;392;48.838;2.322;2023-12-20T16:05:11;11.10;56.40
820;DHT22;392;48.838;2.322;2023-12-20T16:07:38;11.10;57.40
820;DHT22;392;48.838;2.322;2023-12-20T16:10:06;11.00;57.80
820;DHT22;392;48.838;2.322;2023-12-20T16:12:33;11.00;58.30
820;DHT22;392;48.838;2.322;2023-12-20T16:15:01;11.00;59.20
820;DHT22;392;48.838;2.322;2023-12-20T16:17:31;10.90;59.20
820;DHT22;392;48.838;2.322;2023-12-20T16:19:59;10.90;60.10
820;DHT22;392;48.838;2.322;2023-12-20T16:22:26;10.80;60.80
820;DHT22;392;48.838;2.322;2023-12-20T16:24:53;10.80;61.60
820;DHT22;392;48.838;2.322;2023-12-20T16:27:21;10.80;62.20
820;DHT22;392;48.838;2.322;2023-12-20T16:29:48;10.80;62.70
820;DHT22;392;48.838;2.322;2023-12-20T16:32:15;10.80;63.20
820;DHT22;392;48.838;2.322;2023-12-20T16:34:44;10.80;63.70
820;DHT22;392;48.838;2.322;2023-12-20T16:37:11;10.80;63.80
820;DHT22;392;48.838;2.322;2023-12-20T16:39:38;10.80;64.10
820;DHT22;392;48.838;2.322;2023-12-20T16:42:08;10.80;64.00
820;DHT22;392;48.838;2.322;2023-12-20T16:44:35;10.80;64.00
820;DHT22;392;48.838;2.322;2023-12-20T16:47:02;10.80;64.00